sensor_id;sensor_type;location;lat;lon;timestamp;temperature;humidity
15638;DHT22;26604;53.596;10.042;2022-12-07T00:00:37;20.10;99.90
15638;DHT22;26604;53.596;10.042;2022-12-07T00:03:03;20.10;99.90
15638;DHT22;26604;53.596;10.042;2022-12-07T00:05:30;20.10;99.90
15638;DHT22;26604;53.596;10.042;2022-12-07T00:07:57;20.00;99.90
15638;DHT22;26604;53.596;10.042;2022-12-07T00:10:25;20.00;99.90
15638;DHT22;26604;53.596;10.042;2022-12-07T00:12:52;19.90;99.90
15638;DHT22;26604;53.596;10.042;2022-12-07T00:15:19;19.90;99.90
15638;DHT22;26604;53.596;10.042;2022-12-07T00:17:46;19.90;99.90
15638;DHT22;26604;53.596;10.042;2022-12-07T00:20:13;19.90;99.90
15638;DHT22;26604;53.596;10.042;2022-12-07T00:22:40;19.80;99.90
15638;DHT22;26604;53.596;10.042;2022-12-07T00:25:07;19.80;99.90
15638;DHT22;26604;53.596;10.042;2022-12-07T00:27:35;19.80;99.90
15638;DHT22;26604;53.596;10.042;2022-12-07T00:30:02;19.80;99.90
15638;DHT22;26604;53.596;10.042;2022-12-07T00:32:29;19.90;99.90
15638;DHT22;26604;53.596;10.042;2022-12-07T00:34:56;20.00;99.90
15638;DHT22;26604;53.596;10.042;2022-12-07T00:37:23;20.10;99.90
15638;DHT22;26604;53.596;10.042;2022-12-07T00:39:50;20.20;99.90
15638;DHT22;26604;53.596;10.042;2022-12-07T00:42:17;20.30;99.90
15638;DHT22;26604;53.596;10.042;2022-12-07T00:44:45;20.30;99.90
15638;DHT22;26604;53.596;10.042;2022-12-07T00:47:12;20.30;99.90
15638;DHT22;26604;53.596;10.042;2022-12-07T00:49:38;20.30;99.90
15638;DHT22;26604;53.596;10.042;2022-12-07T00:52:05;20.40;99.90
15638;DHT22;26604;53.596;10.042;2022-12-07T00:54:32;20.40;99.90
15638;DHT22;26604;53.596;10.042;2022-12-07T00:56:59;20.40;99.90
15638;DHT22;26604;53.596;10.042;2022-12-07T00:59:26;20.50;99.90
15638;DHT22;26604;53.596;10.042;2022-12-07T01:01:54;20.50;99.90
15638;DHT22;26604;53.596;10.042;2022-12-07T01:04:21;20.50;99.90
15638;DHT22;26604;53.596;10.042;2022-12-07T01:06:48;20.50;99.90
15638;DHT22;26604;53.596;10.042;2022-12-07T01:09:15;20.60;99.90
15638;DHT22;26604;53.596;10.042;2022-12-07T01:11:42;20.60;99.90
15638;DHT22;26604;53.596;10.042;2022-12-07T01:14:09;20.60;99.90
15638;DHT22;26604;53.596;10.042;2022-12-07T01:16:36;20.50;99.90
15638;DHT22;26604;53.596;10.042;2022-12-07T01:19:06;20.50;99.90
15638;DHT22;26604;53.596;10.042;2022-12-07T01:21:35;20.50;99.90
15638;DHT22;26604;53.596;10.042;2022-12-07T01:24:04;20.40;99.90
15638;DHT22;26604;53.596;10.042;2022-12-07T01:26:31;20.40;99.90
15638;DHT22;26604;53.596;10.042;2022-12-07T01:28:58;20.30;99.90
15638;DHT22;26604;53.596;10.042;2022-12-07T01:31:27;20.30;99.90
15638;DHT22;26604;53.596;10.042;2022-12-07T01:33:56;20.30;99.90
15638;DHT22;26604;53.596;10.042;2022-12-07T01:36:27;20.20;99.90
15638;DHT22;26604;53.596;10.042;2022-12-07T01:38:56;20.20;99.90
15638;DHT22;26604;53.596;10.042;2022-12-07T01:41:24;20.10;99.90
15638;DHT22;26604;53.596;10.042;2022-12-07T01:44:11;20.10;99.90
15638;DHT22;26604;53.596;10.042;2022-12-07T01:46:38;20.00;99.90
15638;DHT22;26604;53.596;10.042;2022-12-07T01:49:08;20.00;99.90
15638;DHT22;26604;53.596;10.042;2022-12-07T01:51:38;19.90;99.90
15638;DHT22;26604;53.596;10.042;2022-12-07T01:54:07;19.80;99.90
15638;DHT22;26604;53.596;10.042;2022-12-07T01:56:34;19.80;99.90
15638;DHT22;26604;53.596;10.042;2022-12-07T01:59:02;19.80;99.90
15638;DHT22;26604;53.596;10.042;2022-12-07T02:01:29;19.80;99.90
15638;DHT22;26604;53.596;10.042;2022-12-07T02:03:57;19.70;99.90
15638;DHT22;26604;53.596;10.042;2022-12-07T02:06:25;19.70;99.90
15638;DHT22;26604;53.596;10.042;2022-12-07T02:08:54;19.80;99.90
15638;DHT22;26604;53.596;10.042;2022-12-07T02:11:21;19.90;99.90
15638;DHT22;26604;53.596;10.042;2022-12-07T02:13:48;20.00;99.90
15638;DHT22;26604;53.596;10.042;2022-12-07T02:16:25;20.10;99.90
15638;DHT22;26604;53.596;10.042;2022-12-07T02:19:03;20.20;99.90
15638;DHT22;26604;53.596;10.042;2022-12-07T02:21:42;20.30;99.90
15638;DHT22;26604;53.596;10.042;2022-12-07T02:24:31;20.40;99.90
15638;DHT22;26604;53.596;10.042;2022-12-07T02:27:28;20.40;99.90
15638;DHT22;26604;53.596;10.042;2022-12-07T02:30:01;20.50;99.90
15638;DHT22;26604;53.596;10.042;2022-12-07T02:32:38;20.50;99.90
15638;DHT22;26604;53.596;10.042;2022-12-07T02:35:09;20.50;99.90
15638;DHT22;26604;53.596;10.042;2022-12-07T02:37:41;20.50;99.90
15638;DHT22;26604;53.596;10.042;2022-12-07T02:40:11;20.50;99.90
15638;DHT22;26604;53.596;10.042;2022-12-07T02:42:42;20.40;99.90
15638;DHT22;26604;53.596;10.042;2022-12-07T02:45:15;20.40;99.90
15638;DHT22;26604;53.596;10.042;2022-12-07T02:47:44;20.30;99.90
15638;DHT22;26604;53.596;10.042;2022-12-07T02:50:12;20.30;99.90
15638;DHT22;26604;53.596;10.042;2022-12-07T02:52:39;20.20;99.90
15638;DHT22;26604;53.596;10.042;2022-12-07T02:55:07;20.20;99.90
15638;DHT22;26604;53.596;10.042;2022-12-07T02:57:47;20.20;99.90
15638;DHT22;26604;53.596;10.042;2022-12-07T03:00:19;20.10;99.90
15638;DHT22;26604;53.596;10.042;2022-12-07T03:02:52;20.00;99.90
15638;DHT22;26604;53.596;10.042;2022-12-07T03:05:30;20.00;99.90
15638;DHT22;26604;53.596;10.042;2022-12-07T03:08:04;19.90;99.90
15638;DHT22;26604;53.596;10.042;2022-12-07T03:10:36;19.90;99.90
15638;DHT22;26604;53.596;10.042;2022-12-07T03:13:11;19.80;99.90
15638;DHT22;26604;53.596;10.042;2022-12-07T03:15:46;19.80;99.90
15638;DHT22;26604;53.596;10.042;2022-12-07T03:18:17;19.70;99.90
15638;DHT22;26604;53.596;10.042;2022-12-07T03:20:46;19.70;99.90
15638;DHT22;26604;53.596;10.042;2022-12-07T03:23:16;19.70;99.90
15638;DHT22;26604;53.596;10.042;2022-12-07T03:25:47;19.60;99.90
15638;DHT22;26604;53.596;10.042;2022-12-07T03:28:18;19.70;99.90
15638;DHT22;26604;53.596;10.042;2022-12-07T03:30:50;19.70;99.90
15638;DHT22;26604;53.596;10.042;2022-12-07T03:33:21;19.70;99.90
15638;DHT22;26604;53.596;10.042;2022-12-07T03:35:53;19.70;99.90
15638;DHT22;26604;53.596;10.042;2022-12-07T03:38:25;19.70;99.90
15638;DHT22;26604;53.596;10.042;2022-12-07T03:40:59;19.70;99.90
15638;DHT22;26604;53.596;10.042;2022-12-07T03:43:28;19.80;99.90
15638;DHT22;26604;53.596;10.042;2022-12-07T03:46:01;19.90;99.90
15638;DHT22;26604;53.596;10.042;2022-12-07T03:49:06;20.10;99.90
15638;DHT22;26604;53.596;10.042;2022-12-07T03:51:39;20.20;99.90
15638;DHT22;26604;53.596;10.042;2022-12-07T03:54:10;20.30;99.90
15638;DHT22;26604;53.596;10.042;2022-12-07T03:56:38;20.30;99.90
15638;DHT22;26604;53.596;10.042;2022-12-07T03:59:06;20.40;99.90
15638;DHT22;26604;53.596;10.042;2022-12-07T04:01:35;20.40;99.90
15638;DHT22;26604;53.596;10.042;2022-12-07T04:04:02;20.40;99.90
15638;DHT22;26604;53.596;10.042;2022-12-07T04:06:29;20.40;99.90
15638;DHT22;26604;53.596;10.042;2022-12-07T04:08:56;20.30;99.90
15638;DHT22;26604;53.596;10.042;2022-12-07T04:11:22;20.30;99.90
15638;DHT22;26604;53.596;10.042;2022-12-07T04:13:49;20.30;99.90
15638;DHT22;26604;53.596;10.042;2022-12-07T04:16:35;20.20;99.90
15638;DHT22;26604;53.596;10.042;2022-12-07T04:19:02;20.20;99.90
15638;DHT22;26604;53.596;10.042;2022-12-07T04:21:29;20.10;99.90
15638;DHT22;26604;53.596;10.042;2022-12-07T04:23:56;20.10;99.90
15638;DHT22;26604;53.596;10.042;2022-12-07T04:26:23;20.00;99.90
15638;DHT22;26604;53.596;10.042;2022-12-07T04:28:49;20.00;99.90
15638;DHT22;26604;53.596;10.042;2022-12-07T04:31:16;19.90;99.90
15638;DHT22;26604;53.596;10.042;2022-12-07T04:33:45;19.90;99.90
15638;DHT22;26604;53.596;10.042;2022-12-07T04:36:11;19.90;99.90
15638;DHT22;26604;53.596;10.042;2022-12-07T04:38:38;19.80;99.90
15638;DHT22;26604;53.596;10.042;2022-12-07T04:41:06;19.80;99.90
15638;DHT22;26604;53.596;10.042;2022-12-07T04:43:33;19.70;99.90
15638;DHT22;26604;53.596;10.042;2022-12-07T04:46:00;19.70;99.90
15638;DHT22;26604;53.596;10.042;2022-12-07T04:48:28;19.70;99.90
15638;DHT22;26604;53.596;10.042;2022-12-07T04:50:56;19.60;99.90
15638;DHT22;26604;53.596;10.042;2022-12-07T04:53:23;19.60;99.90
15638;DHT22;26604;53.596;10.042;2022-12-07T04:55:50;19.60;99.90
15638;DHT22;26604;53.596;10.042;2022-12-07T04:58:17;19.50;99.90
15638;DHT22;26604;53.596;10.042;2022-12-07T05:00:44;19.50;99.90
15638;DHT22;26604;53.596;10.042;2022-12-07T05:03:11;19.50;99.90
15638;DHT22;26604;53.596;10.042;2022-12-07T05:05:40;19.50;99.90
15638;DHT22;26604;53.596;10.042;2022-12-07T05:08:08;19.50;99.90
15638;DHT22;26604;53.596;10.042;2022-12-07T05:10:35;19.60;99.90
15638;DHT22;26604;53.596;10.042;2022-12-07T05:13:02;19.80;99.90
15638;DHT22;26604;53.596;10.042;2022-12-07T05:15:29;20.00;99.90
15638;DHT22;26604;53.596;10.042;2022-12-07T05:17:56;20.10;99.90
15638;DHT22;26604;53.596;10.042;2022-12-07T05:20:23;20.20;99.90
15638;DHT22;26604;53.596;10.042;2022-12-07T05:22:49;20.30;99.90
15638;DHT22;26604;53.596;10.042;2022-12-07T05:25:18;20.30;99.90
15638;DHT22;26604;53.596;10.042;2022-12-07T05:27:44;20.30;99.90
15638;DHT22;26604;53.596;10.042;2022-12-07T05:30:12;20.30;99.90
15638;DHT22;26604;53.596;10.042;2022-12-07T05:32:39;20.30;99.90
15638;DHT22;26604;53.596;10.042;2022-12-07T05:35:06;20.30;99.90
15638;DHT22;26604;53.596;10.042;2022-12-07T05:37:33;20.20;99.90
15638;DHT22;26604;53.596;10.042;2022-12-07T05:40:00;20.20;99.90
15638;DHT22;26604;53.596;10.042;2022-12-07T05:42:28;20.20;99.90
15638;DHT22;26604;53.596;10.042;2022-12-07T05:44:55;20.10;99.90
15638;DHT22;26604;53.596;10.042;2022-12-07T05:47:22;20.10;99.90
15638;DHT22;26604;53.596;10.042;2022-12-07T05:49:49;20.00;99.90
15638;DHT22;26604;53.596;10.042;2022-12-07T05:52:16;19.90;99.90
15638;DHT22;26604;53.596;10.042;2022-12-07T05:54:43;19.90;99.90
15638;DHT22;26604;53.596;10.042;2022-12-07T05:57:10;19.90;99.90
15638;DHT22;26604;53.596;10.042;2022-12-07T05:59:38;19.80;99.90
15638;DHT22;26604;53.596;10.042;2022-12-07T06:02:06;19.80;99.90
15638;DHT22;26604;53.596;10.042;2022-12-07T06:04:35;19.70;99.90
15638;DHT22;26604;53.596;10.042;2022-12-07T06:07:03;19.70;99.90
15638;DHT22;26604;53.596;10.042;2022-12-07T06:09:31;19.60;99.90
15638;DHT22;26604;53.596;10.042;2022-12-07T06:11:58;19.60;99.90
15638;DHT22;26604;53.596;10.042;2022-12-07T06:14:44;19.60;99.90
15638;DHT22;26604;53.596;10.042;2022-12-07T06:17:11;19.50;99.90
15638;DHT22;26604;53.596;10.042;2022-12-07T06:19:39;19.50;99.90
15638;DHT22;26604;53.596;10.042;2022-12-07T06:22:06;19.40;99.90
15638;DHT22;26604;53.596;10.042;2022-12-07T06:24:35;19.40;99.90
15638;DHT22;26604;53.596;10.042;2022-12-07T06:27:02;19.40;99.90
15638;DHT22;26604;53.596;10.042;2022-12-07T06:29:29;19.40;99.90
15638;DHT22;26604;53.596;10.042;2022-12-07T06:31:58;19.30;99.90
15638;DHT22;26604;53.596;10.042;2022-12-07T06:34:25;19.30;99.90
15638;DHT22;26604;53.596;10.042;2022-12-07T06:36:53;19.30;99.90
15638;DHT22;26604;53.596;10.042;2022-12-07T06:39:21;19.30;99.90
15638;DHT22;26604;53.596;10.042;2022-12-07T06:41:49;19.40;99.90
15638;DHT22;26604;53.596;10.042;2022-12-07T06:44:17;19.50;99.90
15638;DHT22;26604;53.596;10.042;2022-12-07T06:46:44;19.60;99.90
15638;DHT22;26604;53.596;10.042;2022-12-07T06:49:12;19.70;99.90
15638;DHT22;26604;53.596;10.042;2022-12-07T06:51:39;19.80;99.90
15638;DHT22;26604;53.596;10.042;2022-12-07T06:54:07;19.90;99.90
15638;DHT22;26604;53.596;10.042;2022-12-07T06:56:34;19.90;99.90
15638;DHT22;26604;53.596;10.042;2022-12-07T06:59:02;19.90;99.90
15638;DHT22;26604;53.596;10.042;2022-12-07T07:01:29;20.00;99.90
15638;DHT22;26604;53.596;10.042;2022-12-07T07:03:56;20.10;99.90
15638;DHT22;26604;53.596;10.042;2022-12-07T07:06:24;20.20;99.90
15638;DHT22;26604;53.596;10.042;2022-12-07T07:08:51;20.30;99.90
15638;DHT22;26604;53.596;10.042;2022-12-07T07:11:18;20.50;99.90
15638;DHT22;26604;53.596;10.042;2022-12-07T07:13:45;20.60;99.90
15638;DHT22;26604;53.596;10.042;2022-12-07T07:16:12;20.80;99.90
15638;DHT22;26604;53.596;10.042;2022-12-07T07:18:39;20.90;99.90
15638;DHT22;26604;53.596;10.042;2022-12-07T07:21:06;21.00;99.90
15638;DHT22;26604;53.596;10.042;2022-12-07T07:23:34;21.10;99.90
15638;DHT22;26604;53.596;10.042;2022-12-07T07:26:01;21.10;99.90
15638;DHT22;26604;53.596;10.042;2022-12-07T07:28:28;21.10;99.90
15638;DHT22;26604;53.596;10.042;2022-12-07T07:30:55;21.10;99.90
15638;DHT22;26604;53.596;10.042;2022-12-07T07:33:22;21.10;99.90
15638;DHT22;26604;53.596;10.042;2022-12-07T07:35:49;21.10;99.90
15638;DHT22;26604;53.596;10.042;2022-12-07T07:38:16;21.00;99.90
15638;DHT22;26604;53.596;10.042;2022-12-07T07:40:44;21.00;99.90
15638;DHT22;26604;53.596;10.042;2022-12-07T07:43:11;21.00;99.90
15638;DHT22;26604;53.596;10.042;2022-12-07T07:45:38;21.00;99.90
15638;DHT22;26604;53.596;10.042;2022-12-07T07:48:06;21.00;99.90
15638;DHT22;26604;53.596;10.042;2022-12-07T07:50:33;20.90;99.90
15638;DHT22;26604;53.596;10.042;2022-12-07T07:53:00;20.90;99.90
15638;DHT22;26604;53.596;10.042;2022-12-07T07:55:26;20.80;99.90
15638;DHT22;26604;53.596;10.042;2022-12-07T07:57:55;20.80;99.90
15638;DHT22;26604;53.596;10.042;2022-12-07T08:00:22;20.70;99.90
15638;DHT22;26604;53.596;10.042;2022-12-07T08:02:49;20.70;99.90
15638;DHT22;26604;53.596;10.042;2022-12-07T08:05:16;20.60;99.90
15638;DHT22;26604;53.596;10.042;2022-12-07T08:07:43;20.60;99.90
15638;DHT22;26604;53.596;10.042;2022-12-07T08:10:11;20.60;99.90
15638;DHT22;26604;53.596;10.042;2022-12-07T08:12:39;20.80;99.90
15638;DHT22;26604;53.596;10.042;2022-12-07T08:15:29;20.90;99.90
15638;DHT22;26604;53.596;10.042;2022-12-07T08:17:57;21.10;99.90
15638;DHT22;26604;53.596;10.042;2022-12-07T08:20:23;21.30;99.90
15638;DHT22;26604;53.596;10.042;2022-12-07T08:22:50;21.40;99.90
15638;DHT22;26604;53.596;10.042;2022-12-07T08:25:18;21.50;99.90
15638;DHT22;26604;53.596;10.042;2022-12-07T08:27:45;21.60;99.90
15638;DHT22;26604;53.596;10.042;2022-12-07T08:30:12;21.60;99.90
15638;DHT22;26604;53.596;10.042;2022-12-07T08:32:40;21.60;99.90
15638;DHT22;26604;53.596;10.042;2022-12-07T08:35:08;21.60;99.90
15638;DHT22;26604;53.596;10.042;2022-12-07T08:37:35;21.50;99.90
15638;DHT22;26604;53.596;10.042;2022-12-07T08:40:02;21.60;99.90
15638;DHT22;26604;53.596;10.042;2022-12-07T08:42:29;21.60;99.90
15638;DHT22;26604;53.596;10.042;2022-12-07T08:45:04;21.70;99.90
15638;DHT22;26604;53.596;10.042;2022-12-07T08:47:32;21.70;99.90
15638;DHT22;26604;53.596;10.042;2022-12-07T08:50:01;21.70;99.90
15638;DHT22;26604;53.596;10.042;2022-12-07T08:52:29;21.60;99.90
15638;DHT22;26604;53.596;10.042;2022-12-07T08:54:56;21.60;99.90
15638;DHT22;26604;53.596;10.042;2022-12-07T08:57:24;21.50;99.90
15638;DHT22;26604;53.596;10.042;2022-12-07T08:59:51;21.40;99.90
15638;DHT22;26604;53.596;10.042;2022-12-07T09:02:18;21.40;99.90
15638;DHT22;26604;53.596;10.042;2022-12-07T09:04:45;21.30;99.90
15638;DHT22;26604;53.596;10.042;2022-12-07T09:07:13;21.30;99.90
15638;DHT22;26604;53.596;10.042;2022-12-07T09:09:40;21.30;99.90
15638;DHT22;26604;53.596;10.042;2022-12-07T09:12:07;21.40;99.90
15638;DHT22;26604;53.596;10.042;2022-12-07T09:14:34;21.40;99.90
15638;DHT22;26604;53.596;10.042;2022-12-07T09:17:09;21.50;99.90
15638;DHT22;26604;53.596;10.042;2022-12-07T09:19:36;21.50;99.90
15638;DHT22;26604;53.596;10.042;2022-12-07T09:22:04;21.60;99.90
15638;DHT22;26604;53.596;10.042;2022-12-07T09:24:32;21.60;99.90
15638;DHT22;26604;53.596;10.042;2022-12-07T09:26:59;21.50;99.90
15638;DHT22;26604;53.596;10.042;2022-12-07T09:29:26;21.50;99.90
15638;DHT22;26604;53.596;10.042;2022-12-07T09:31:53;21.50;99.90
15638;DHT22;26604;53.596;10.042;2022-12-07T09:34:20;21.40;99.90
15638;DHT22;26604;53.596;10.042;2022-12-07T09:36:47;21.40;99.90
15638;DHT22;26604;53.596;10.042;2022-12-07T09:39:14;21.30;99.90
15638;DHT22;26604;53.596;10.042;2022-12-07T09:41:44;21.30;99.90
15638;DHT22;26604;53.596;10.042;2022-12-07T09:44:14;21.20;99.90
15638;DHT22;26604;53.596;10.042;2022-12-07T09:46:43;21.20;99.90
15638;DHT22;26604;53.596;10.042;2022-12-07T09:49:13;21.10;99.90
15638;DHT22;26604;53.596;10.042;2022-12-07T09:51:41;21.10;99.90
15638;DHT22;26604;53.596;10.042;2022-12-07T09:54:09;21.10;99.90
15638;DHT22;26604;53.596;10.042;2022-12-07T09:56:38;21.10;99.90
15638;DHT22;26604;53.596;10.042;2022-12-07T09:59:13;21.10;99.90
15638;DHT22;26604;53.596;10.042;2022-12-07T10:01:41;21.30;99.90
15638;DHT22;26604;53.596;10.042;2022-12-07T10:04:11;21.50;99.90
15638;DHT22;26604;53.596;10.042;2022-12-07T10:06:39;21.60;99.90
15638;DHT22;26604;53.596;10.042;2022-12-07T10:09:10;21.60;99.90
15638;DHT22;26604;53.596;10.042;2022-12-07T10:11:58;21.70;99.90
15638;DHT22;26604;53.596;10.042;2022-12-07T10:14:27;21.70;99.90
15638;DHT22;26604;53.596;10.042;2022-12-07T10:16:54;21.70;99.90
15638;DHT22;26604;53.596;10.042;2022-12-07T10:19:24;21.70;99.90
15638;DHT22;26604;53.596;10.042;2022-12-07T10:22:02;21.70;99.90
15638;DHT22;26604;53.596;10.042;2022-12-07T10:24:30;21.70;99.90
15638;DHT22;26604;53.596;10.042;2022-12-07T10:26:57;21.60;99.90
15638;DHT22;26604;53.596;10.042;2022-12-07T10:29:29;21.60;99.90
15638;DHT22;26604;53.596;10.042;2022-12-07T10:31:58;21.50;99.90
15638;DHT22;26604;53.596;10.042;2022-12-07T10:34:28;21.50;99.90
15638;DHT22;26604;53.596;10.042;2022-12-07T10:37:14;21.50;99.90
15638;DHT22;26604;53.596;10.042;2022-12-07T10:39:43;21.60;99.90
15638;DHT22;26604;53.596;10.042;2022-12-07T10:42:18;21.70;99.90
15638;DHT22;26604;53.596;10.042;2022-12-07T10:44:48;21.90;99.90
15638;DHT22;26604;53.596;10.042;2022-12-07T10:50:26;22.30;99.90
15638;DHT22;26604;53.596;10.042;2022-12-07T10:53:05;22.50;99.90
15638;DHT22;26604;53.596;10.042;2022-12-07T10:55:49;22.70;99.90
15638;DHT22;26604;53.596;10.042;2022-12-07T10:58:33;22.80;99.90
15638;DHT22;26604;53.596;10.042;2022-12-07T11:01:13;22.80;99.90
15638;DHT22;26604;53.596;10.042;2022-12-07T11:04:01;22.90;99.90
15638;DHT22;26604;53.596;10.042;2022-12-07T11:06:34;22.90;99.90
15638;DHT22;26604;53.596;10.042;2022-12-07T11:09:23;22.90;99.90
15638;DHT22;26604;53.596;10.042;2022-12-07T11:11:55;22.80;99.90
15638;DHT22;26604;53.596;10.042;2022-12-07T11:14:30;22.70;99.90
15638;DHT22;26604;53.596;10.042;2022-12-07T11:17:03;22.70;99.90
15638;DHT22;26604;53.596;10.042;2022-12-07T11:19:49;22.60;99.90
15638;DHT22;26604;53.596;10.042;2022-12-07T11:22:25;22.60;99.90
15638;DHT22;26604;53.596;10.042;2022-12-07T11:24:57;22.70;99.90
15638;DHT22;26604;53.596;10.042;2022-12-07T11:27:35;22.70;99.90
15638;DHT22;26604;53.596;10.042;2022-12-07T11:30:17;22.60;99.90
15638;DHT22;26604;53.596;10.042;2022-12-07T11:32:57;22.60;99.90
15638;DHT22;26604;53.596;10.042;2022-12-07T11:35:35;22.50;99.90
15638;DHT22;26604;53.596;10.042;2022-12-07T11:38:16;22.40;99.90
15638;DHT22;26604;53.596;10.042;2022-12-07T11:40:45;22.30;99.90
15638;DHT22;26604;53.596;10.042;2022-12-07T11:43:20;22.20;99.90
15638;DHT22;26604;53.596;10.042;2022-12-07T11:45:54;22.20;99.90
15638;DHT22;26604;53.596;10.042;2022-12-07T11:48:33;22.10;99.90
15638;DHT22;26604;53.596;10.042;2022-12-07T11:51:03;22.00;99.90
15638;DHT22;26604;53.596;10.042;2022-12-07T11:53:35;21.90;99.90
15638;DHT22;26604;53.596;10.042;2022-12-07T11:56:07;21.80;99.90
15638;DHT22;26604;53.596;10.042;2022-12-07T11:58:48;21.70;99.90
15638;DHT22;26604;53.596;10.042;2022-12-07T12:01:26;21.70;99.90
15638;DHT22;26604;53.596;10.042;2022-12-07T12:04:03;21.60;99.90
15638;DHT22;26604;53.596;10.042;2022-12-07T12:06:32;21.50;99.90
15638;DHT22;26604;53.596;10.042;2022-12-07T12:09:04;21.40;99.90
15638;DHT22;26604;53.596;10.042;2022-12-07T12:11:45;21.40;99.90
15638;DHT22;26604;53.596;10.042;2022-12-07T12:14:28;21.50;99.90
15638;DHT22;26604;53.596;10.042;2022-12-07T12:20:20;21.80;99.90
15638;DHT22;26604;53.596;10.042;2022-12-07T12:22:53;21.90;99.90
15638;DHT22;26604;53.596;10.042;2022-12-07T12:25:24;22.00;99.90
15638;DHT22;26604;53.596;10.042;2022-12-07T12:27:54;22.00;99.90
15638;DHT22;26604;53.596;10.042;2022-12-07T12:30:34;22.00;99.90
15638;DHT22;26604;53.596;10.042;2022-12-07T12:33:04;22.00;99.90
15638;DHT22;26604;53.596;10.042;2022-12-07T12:35:34;22.00;99.90
15638;DHT22;26604;53.596;10.042;2022-12-07T12:38:27;21.90;99.90
15638;DHT22;26604;53.596;10.042;2022-12-07T12:40:56;21.90;99.90
15638;DHT22;26604;53.596;10.042;2022-12-07T12:43:49;21.80;99.90
15638;DHT22;26604;53.596;10.042;2022-12-07T12:46:47;21.80;99.90
15638;DHT22;26604;53.596;10.042;2022-12-07T12:49:36;21.70;99.90
15638;DHT22;26604;53.596;10.042;2022-12-07T12:55:17;21.60;99.90
15638;DHT22;26604;53.596;10.042;2022-12-07T12:57:47;21.60;99.90
15638;DHT22;26604;53.596;10.042;2022-12-07T13:00:19;21.50;99.90
15638;DHT22;26604;53.596;10.042;2022-12-07T13:02:49;21.50;99.90
15638;DHT22;26604;53.596;10.042;2022-12-07T13:05:20;21.50;99.90
15638;DHT22;26604;53.596;10.042;2022-12-07T13:07:54;21.40;99.90
15638;DHT22;26604;53.596;10.042;2022-12-07T13:10:37;21.40;99.90
15638;DHT22;26604;53.596;10.042;2022-12-07T13:13:30;21.30;99.90
15638;DHT22;26604;53.596;10.042;2022-12-07T13:18:58;21.30;99.90
15638;DHT22;26604;53.596;10.042;2022-12-07T13:21:42;21.40;99.90
15638;DHT22;26604;53.596;10.042;2022-12-07T13:24:12;21.50;99.90
15638;DHT22;26604;53.596;10.042;2022-12-07T13:26:42;21.50;99.90
15638;DHT22;26604;53.596;10.042;2022-12-07T13:29:13;21.60;99.90
15638;DHT22;26604;53.596;10.042;2022-12-07T13:31:41;21.70;99.90
15638;DHT22;26604;53.596;10.042;2022-12-07T13:34:30;21.70;99.90
15638;DHT22;26604;53.596;10.042;2022-12-07T13:36:59;21.70;99.90
15638;DHT22;26604;53.596;10.042;2022-12-07T13:39:27;21.70;99.90
15638;DHT22;26604;53.596;10.042;2022-12-07T13:41:56;21.70;99.90
15638;DHT22;26604;53.596;10.042;2022-12-07T13:44:24;21.70;99.90
15638;DHT22;26604;53.596;10.042;2022-12-07T13:47:00;21.70;99.90
15638;DHT22;26604;53.596;10.042;2022-12-07T13:49:31;21.70;99.90
15638;DHT22;26604;53.596;10.042;2022-12-07T13:52:17;21.70;99.90
15638;DHT22;26604;53.596;10.042;2022-12-07T13:54:46;21.70;99.90
15638;DHT22;26604;53.596;10.042;2022-12-07T13:57:13;21.70;99.90
15638;DHT22;26604;53.596;10.042;2022-12-07T13:59:40;21.70;99.90
15638;DHT22;26604;53.596;10.042;2022-12-07T14:02:18;21.70;99.90
15638;DHT22;26604;53.596;10.042;2022-12-07T14:04:48;21.60;99.90
15638;DHT22;26604;53.596;10.042;2022-12-07T14:07:22;21.60;99.90
15638;DHT22;26604;53.596;10.042;2022-12-07T14:09:58;21.50;99.90
15638;DHT22;26604;53.596;10.042;2022-12-07T14:12:27;21.50;99.90
15638;DHT22;26604;53.596;10.042;2022-12-07T14:14:55;21.50;99.90
15638;DHT22;26604;53.596;10.042;2022-12-07T14:17:24;21.60;99.90
15638;DHT22;26604;53.596;10.042;2022-12-07T14:19:54;21.70;99.90
15638;DHT22;26604;53.596;10.042;2022-12-07T14:22:32;21.70;99.90
15638;DHT22;26604;53.596;10.042;2022-12-07T14:25:20;21.70;99.90
15638;DHT22;26604;53.596;10.042;2022-12-07T14:27:51;21.80;99.90
15638;DHT22;26604;53.596;10.042;2022-12-07T14:30:21;21.80;99.90
15638;DHT22;26604;53.596;10.042;2022-12-07T14:32:52;21.80;99.90
15638;DHT22;26604;53.596;10.042;2022-12-07T14:35:21;21.80;99.90
15638;DHT22;26604;53.596;10.042;2022-12-07T14:37:48;21.70;99.90
15638;DHT22;26604;53.596;10.042;2022-12-07T14:40:18;21.70;99.90
15638;DHT22;26604;53.596;10.042;2022-12-07T14:42:47;21.70;99.90
15638;DHT22;26604;53.596;10.042;2022-12-07T14:45:16;21.60;99.90
15638;DHT22;26604;53.596;10.042;2022-12-07T14:47:43;21.60;99.90
15638;DHT22;26604;53.596;10.042;2022-12-07T14:50:12;21.50;99.90
15638;DHT22;26604;53.596;10.042;2022-12-07T14:52:42;21.50;99.90
15638;DHT22;26604;53.596;10.042;2022-12-07T14:55:15;21.40;99.90
15638;DHT22;26604;53.596;10.042;2022-12-07T14:57:43;21.40;99.90
15638;DHT22;26604;53.596;10.042;2022-12-07T15:00:14;21.30;99.90
15638;DHT22;26604;53.596;10.042;2022-12-07T15:02:42;21.30;99.90
15638;DHT22;26604;53.596;10.042;2022-12-07T15:05:09;21.40;99.90
15638;DHT22;26604;53.596;10.042;2022-12-07T15:07:36;21.50;99.90
15638;DHT22;26604;53.596;10.042;2022-12-07T15:10:08;21.60;99.90
15638;DHT22;26604;53.596;10.042;2022-12-07T15:12:37;21.70;99.90
15638;DHT22;26604;53.596;10.042;2022-12-07T15:15:05;21.80;99.90
15638;DHT22;26604;53.596;10.042;2022-12-07T15:17:32;21.90;99.90
15638;DHT22;26604;53.596;10.042;2022-12-07T15:19:59;22.00;99.90
15638;DHT22;26604;53.596;10.042;2022-12-07T15:22:25;22.00;99.90
15638;DHT22;26604;53.596;10.042;2022-12-07T15:24:52;22.00;99.90
15638;DHT22;26604;53.596;10.042;2022-12-07T15:27:21;22.00;99.90
15638;DHT22;26604;53.596;10.042;2022-12-07T15:29:47;22.00;99.90
15638;DHT22;26604;53.596;10.042;2022-12-07T15:32:14;21.90;99.90
15638;DHT22;26604;53.596;10.042;2022-12-07T15:34:41;21.90;99.90
15638;DHT22;26604;53.596;10.042;2022-12-07T15:37:08;21.90;99.90
15638;DHT22;26604;53.596;10.042;2022-12-07T15:39:36;21.80;99.90
15638;DHT22;26604;53.596;10.042;2022-12-07T15:42:03;21.80;99.90
15638;DHT22;26604;53.596;10.042;2022-12-07T15:44:31;21.70;99.90
15638;DHT22;26604;53.596;10.042;2022-12-07T15:47:16;21.60;99.90